sensor_id;sensor_type;location;lat;lon;timestamp;temperature;humidity
28460;DHT22;32528;45.712;9.192;2023-06-19T00:01:39;20.60;99.90
28460;DHT22;32528;45.712;9.192;2023-06-19T00:03:39;20.60;99.90
28460;DHT22;32528;45.712;9.192;2023-06-19T00:05:40;20.60;99.90
28460;DHT22;32528;45.712;9.192;2023-06-19T00:07:40;20.60;99.90
28460;DHT22;32528;45.712;9.192;2023-06-19T00:09:41;20.50;99.90
28460;DHT22;32528;45.712;9.192;2023-06-19T00:11:42;20.50;99.90
28460;DHT22;32528;45.712;9.192;2023-06-19T00:13:43;20.50;99.90
28460;DHT22;32528;45.712;9.192;2023-06-19T00:15:43;20.50;99.90
28460;DHT22;32528;45.712;9.192;2023-06-19T00:17:44;20.50;99.90
28460;DHT22;32528;45.712;9.192;2023-06-19T00:19:45;20.50;99.90
28460;DHT22;32528;45.712;9.192;2023-06-19T00:21:45;20.50;99.90
28460;DHT22;32528;45.712;9.192;2023-06-19T00:23:46;20.50;99.90
28460;DHT22;32528;45.712;9.192;2023-06-19T00:25:47;20.40;99.90
28460;DHT22;32528;45.712;9.192;2023-06-19T00:27:47;20.40;99.90
28460;DHT22;32528;45.712;9.192;2023-06-19T00:29:48;20.30;99.90
28460;DHT22;32528;45.712;9.192;2023-06-19T00:31:49;20.30;99.90
28460;DHT22;32528;45.712;9.192;2023-06-19T00:33:49;20.30;99.90
28460;DHT22;32528;45.712;9.192;2023-06-19T00:35:51;20.30;99.90
28460;DHT22;32528;45.712;9.192;2023-06-19T00:37:52;20.30;99.90
28460;DHT22;32528;45.712;9.192;2023-06-19T00:39:53;20.20;99.90
28460;DHT22;32528;45.712;9.192;2023-06-19T00:41:55;20.30;99.90
28460;DHT22;32528;45.712;9.192;2023-06-19T00:43:56;20.20;99.90
28460;DHT22;32528;45.712;9.192;2023-06-19T00:45:57;20.20;99.90
28460;DHT22;32528;45.712;9.192;2023-06-19T00:47:58;20.10;99.90
28460;DHT22;32528;45.712;9.192;2023-06-19T00:49:59;20.00;99.90
28460;DHT22;32528;45.712;9.192;2023-06-19T00:52:00;20.00;99.90
28460;DHT22;32528;45.712;9.192;2023-06-19T00:54:00;20.00;99.90
28460;DHT22;32528;45.712;9.192;2023-06-19T00:56:01;20.00;99.90
28460;DHT22;32528;45.712;9.192;2023-06-19T00:58:02;19.90;99.90
28460;DHT22;32528;45.712;9.192;2023-06-19T01:00:03;19.90;99.90
28460;DHT22;32528;45.712;9.192;2023-06-19T01:02:08;20.00;99.90
28460;DHT22;32528;45.712;9.192;2023-06-19T01:04:09;20.00;99.90
28460;DHT22;32528;45.712;9.192;2023-06-19T01:06:13;20.00;99.90
28460;DHT22;32528;45.712;9.192;2023-06-19T01:10:36;19.90;99.90
28460;DHT22;32528;45.712;9.192;2023-06-19T01:12:40;19.90;99.90
28460;DHT22;32528;45.712;9.192;2023-06-19T01:14:50;19.90;99.90
28460;DHT22;32528;45.712;9.192;2023-06-19T01:16:53;19.90;99.90
28460;DHT22;32528;45.712;9.192;2023-06-19T01:18:59;19.90;99.90
28460;DHT22;32528;45.712;9.192;2023-06-19T01:21:13;19.90;99.90
28460;DHT22;32528;45.712;9.192;2023-06-19T01:23:14;19.90;99.90
28460;DHT22;32528;45.712;9.192;2023-06-19T01:25:14;19.90;99.90
28460;DHT22;32528;45.712;9.192;2023-06-19T01:27:17;19.90;99.90
28460;DHT22;32528;45.712;9.192;2023-06-19T01:29:18;19.90;99.90
28460;DHT22;32528;45.712;9.192;2023-06-19T01:31:24;19.90;99.90
28460;DHT22;32528;45.712;9.192;2023-06-19T01:33:26;19.90;99.90
28460;DHT22;32528;45.712;9.192;2023-06-19T01:35:28;19.90;99.90
28460;DHT22;32528;45.712;9.192;2023-06-19T01:37:29;20.00;99.90
28460;DHT22;32528;45.712;9.192;2023-06-19T01:39:33;20.00;99.90
28460;DHT22;32528;45.712;9.192;2023-06-19T01:41:36;20.00;99.90
28460;DHT22;32528;45.712;9.192;2023-06-19T01:43:37;19.90;99.90
28460;DHT22;32528;45.712;9.192;2023-06-19T01:45:38;19.90;99.90
28460;DHT22;32528;45.712;9.192;2023-06-19T01:47:40;19.90;99.90
28460;DHT22;32528;45.712;9.192;2023-06-19T01:49:40;19.90;99.90
28460;DHT22;32528;45.712;9.192;2023-06-19T01:51:41;19.90;99.90
28460;DHT22;32528;45.712;9.192;2023-06-19T01:53:42;19.80;99.90
28460;DHT22;32528;45.712;9.192;2023-06-19T01:55:44;19.80;99.90
28460;DHT22;32528;45.712;9.192;2023-06-19T01:57:44;19.80;99.90
28460;DHT22;32528;45.712;9.192;2023-06-19T01:59:47;19.90;99.90
28460;DHT22;32528;45.712;9.192;2023-06-19T02:01:47;19.80;99.90
28460;DHT22;32528;45.712;9.192;2023-06-19T02:03:50;19.80;99.90
28460;DHT22;32528;45.712;9.192;2023-06-19T02:05:51;19.80;99.90
28460;DHT22;32528;45.712;9.192;2023-06-19T02:07:54;19.80;99.90
28460;DHT22;32528;45.712;9.192;2023-06-19T02:09:55;19.80;99.90
28460;DHT22;32528;45.712;9.192;2023-06-19T02:11:56;19.70;99.90
28460;DHT22;32528;45.712;9.192;2023-06-19T02:13:58;19.70;99.90
28460;DHT22;32528;45.712;9.192;2023-06-19T02:15:59;19.60;99.90
28460;DHT22;32528;45.712;9.192;2023-06-19T02:18:02;19.60;99.90
28460;DHT22;32528;45.712;9.192;2023-06-19T02:20:03;19.60;99.90
28460;DHT22;32528;45.712;9.192;2023-06-19T02:22:08;19.70;99.90
28460;DHT22;32528;45.712;9.192;2023-06-19T02:24:09;19.70;99.90
28460;DHT22;32528;45.712;9.192;2023-06-19T02:26:10;19.60;99.90
28460;DHT22;32528;45.712;9.192;2023-06-19T02:28:10;19.60;99.90
28460;DHT22;32528;45.712;9.192;2023-06-19T02:30:11;19.60;99.90
28460;DHT22;32528;45.712;9.192;2023-06-19T02:32:12;19.70;99.90
28460;DHT22;32528;45.712;9.192;2023-06-19T02:34:12;19.70;99.90
28460;DHT22;32528;45.712;9.192;2023-06-19T02:36:13;19.70;99.90
28460;DHT22;32528;45.712;9.192;2023-06-19T02:38:19;19.70;99.90
28460;DHT22;32528;45.712;9.192;2023-06-19T02:40:22;19.70;99.90
28460;DHT22;32528;45.712;9.192;2023-06-19T02:42:23;19.60;99.90
28460;DHT22;32528;45.712;9.192;2023-06-19T02:44:24;19.60;99.90
28460;DHT22;32528;45.712;9.192;2023-06-19T02:46:24;19.60;99.90
28460;DHT22;32528;45.712;9.192;2023-06-19T02:48:27;19.60;99.90
28460;DHT22;32528;45.712;9.192;2023-06-19T02:50:27;19.70;99.90
28460;DHT22;32528;45.712;9.192;2023-06-19T02:52:28;19.60;99.90
28460;DHT22;32528;45.712;9.192;2023-06-19T02:54:29;19.60;99.90
28460;DHT22;32528;45.712;9.192;2023-06-19T02:56:31;19.60;99.90
28460;DHT22;32528;45.712;9.192;2023-06-19T02:58:31;19.60;99.90
28460;DHT22;32528;45.712;9.192;2023-06-19T03:00:33;19.60;99.90
28460;DHT22;32528;45.712;9.192;2023-06-19T03:02:34;19.60;99.90
28460;DHT22;32528;45.712;9.192;2023-06-19T03:04:35;19.60;99.90
28460;DHT22;32528;45.712;9.192;2023-06-19T03:06:38;19.60;99.90
28460;DHT22;32528;45.712;9.192;2023-06-19T03:08:40;19.70;99.90
28460;DHT22;32528;45.712;9.192;2023-06-19T03:10:40;19.60;99.90
28460;DHT22;32528;45.712;9.192;2023-06-19T03:12:41;19.60;99.90
28460;DHT22;32528;45.712;9.192;2023-06-19T03:14:42;19.60;99.90
28460;DHT22;32528;45.712;9.192;2023-06-19T03:16:44;19.50;99.90
28460;DHT22;32528;45.712;9.192;2023-06-19T03:18:45;19.50;99.90
28460;DHT22;32528;45.712;9.192;2023-06-19T03:20:46;19.50;99.90
28460;DHT22;32528;45.712;9.192;2023-06-19T03:22:46;19.50;99.90
28460;DHT22;32528;45.712;9.192;2023-06-19T03:24:49;19.50;99.90
28460;DHT22;32528;45.712;9.192;2023-06-19T03:26:55;19.50;99.90
28460;DHT22;32528;45.712;9.192;2023-06-19T03:28:56;19.50;99.90
28460;DHT22;32528;45.712;9.192;2023-06-19T03:30:59;19.60;99.90
28460;DHT22;32528;45.712;9.192;2023-06-19T03:33:01;19.50;99.90
28460;DHT22;32528;45.712;9.192;2023-06-19T03:35:14;19.50;99.90
28460;DHT22;32528;45.712;9.192;2023-06-19T03:37:18;19.50;99.90
28460;DHT22;32528;45.712;9.192;2023-06-19T03:39:18;19.50;99.90
28460;DHT22;32528;45.712;9.192;2023-06-19T03:41:19;19.50;99.90
28460;DHT22;32528;45.712;9.192;2023-06-19T03:43:21;19.50;99.90
28460;DHT22;32528;45.712;9.192;2023-06-19T03:45:23;19.50;99.90
28460;DHT22;32528;45.712;9.192;2023-06-19T03:47:24;19.60;99.90
28460;DHT22;32528;45.712;9.192;2023-06-19T03:49:25;19.60;99.90
28460;DHT22;32528;45.712;9.192;2023-06-19T03:51:25;19.50;99.90
28460;DHT22;32528;45.712;9.192;2023-06-19T03:53:26;19.50;99.90
28460;DHT22;32528;45.712;9.192;2023-06-19T03:55:28;19.50;99.90
28460;DHT22;32528;45.712;9.192;2023-06-19T03:57:29;19.50;99.90
28460;DHT22;32528;45.712;9.192;2023-06-19T03:59:30;19.50;99.90
28460;DHT22;32528;45.712;9.192;2023-06-19T04:01:30;19.50;99.90
28460;DHT22;32528;45.712;9.192;2023-06-19T04:03:31;19.50;99.90
28460;DHT22;32528;45.712;9.192;2023-06-19T04:05:32;19.50;99.90
28460;DHT22;32528;45.712;9.192;2023-06-19T04:07:32;19.60;99.90
28460;DHT22;32528;45.712;9.192;2023-06-19T04:09:33;19.70;99.90
28460;DHT22;32528;45.712;9.192;2023-06-19T04:11:35;19.70;99.90
28460;DHT22;32528;45.712;9.192;2023-06-19T04:13:37;19.80;99.90
28460;DHT22;32528;45.712;9.192;2023-06-19T04:15:37;19.80;99.90
28460;DHT22;32528;45.712;9.192;2023-06-19T04:17:38;19.80;99.90
28460;DHT22;32528;45.712;9.192;2023-06-19T04:19:39;19.90;99.90
28460;DHT22;32528;45.712;9.192;2023-06-19T04:21:40;19.90;99.90
28460;DHT22;32528;45.712;9.192;2023-06-19T04:23:40;20.00;99.90
28460;DHT22;32528;45.712;9.192;2023-06-19T04:25:41;20.00;99.90
28460;DHT22;32528;45.712;9.192;2023-06-19T04:27:41;20.10;99.90
28460;DHT22;32528;45.712;9.192;2023-06-19T04:29:45;20.20;99.90
28460;DHT22;32528;45.712;9.192;2023-06-19T04:31:45;20.20;99.90
28460;DHT22;32528;45.712;9.192;2023-06-19T04:33:50;20.30;99.90
28460;DHT22;32528;45.712;9.192;2023-06-19T04:35:50;20.40;99.90
28460;DHT22;32528;45.712;9.192;2023-06-19T04:37:51;20.40;99.90
28460;DHT22;32528;45.712;9.192;2023-06-19T04:39:52;20.50;99.90
28460;DHT22;32528;45.712;9.192;2023-06-19T04:41:52;20.60;99.90
28460;DHT22;32528;45.712;9.192;2023-06-19T04:43:53;20.70;99.90
28460;DHT22;32528;45.712;9.192;2023-06-19T04:45:54;20.70;99.90
28460;DHT22;32528;45.712;9.192;2023-06-19T04:47:55;20.70;99.90
28460;DHT22;32528;45.712;9.192;2023-06-19T04:49:56;20.80;99.90
28460;DHT22;32528;45.712;9.192;2023-06-19T04:51:57;20.80;99.90
28460;DHT22;32528;45.712;9.192;2023-06-19T04:54:01;20.90;99.90
28460;DHT22;32528;45.712;9.192;2023-06-19T04:56:02;20.90;99.90
28460;DHT22;32528;45.712;9.192;2023-06-19T04:58:02;20.90;99.90
28460;DHT22;32528;45.712;9.192;2023-06-19T05:00:06;20.90;99.90
28460;DHT22;32528;45.712;9.192;2023-06-19T05:02:07;20.90;99.90
28460;DHT22;32528;45.712;9.192;2023-06-19T05:04:08;21.00;99.90
28460;DHT22;32528;45.712;9.192;2023-06-19T05:06:08;21.00;99.90
28460;DHT22;32528;45.712;9.192;2023-06-19T05:08:09;21.10;99.90
28460;DHT22;32528;45.712;9.192;2023-06-19T05:10:10;21.10;99.90
28460;DHT22;32528;45.712;9.192;2023-06-19T05:12:11;21.10;99.90
28460;DHT22;32528;45.712;9.192;2023-06-19T05:14:11;21.10;99.90
28460;DHT22;32528;45.712;9.192;2023-06-19T05:16:14;21.20;99.90
28460;DHT22;32528;45.712;9.192;2023-06-19T05:18:17;21.30;99.90
28460;DHT22;32528;45.712;9.192;2023-06-19T05:20:17;21.30;99.90
28460;DHT22;32528;45.712;9.192;2023-06-19T05:22:19;21.40;99.90
28460;DHT22;32528;45.712;9.192;2023-06-19T05:24:21;21.50;99.90
28460;DHT22;32528;45.712;9.192;2023-06-19T05:26:22;21.60;99.90
28460;DHT22;32528;45.712;9.192;2023-06-19T05:28:23;21.60;99.90
28460;DHT22;32528;45.712;9.192;2023-06-19T05:30:23;21.70;99.90
28460;DHT22;32528;45.712;9.192;2023-06-19T05:32:33;21.90;99.90
28460;DHT22;32528;45.712;9.192;2023-06-19T05:34:34;21.90;99.90
28460;DHT22;32528;45.712;9.192;2023-06-19T05:36:34;22.10;99.90
28460;DHT22;32528;45.712;9.192;2023-06-19T05:38:37;22.20;99.90
28460;DHT22;32528;45.712;9.192;2023-06-19T05:40:38;22.20;99.90
28460;DHT22;32528;45.712;9.192;2023-06-19T05:42:41;22.30;99.90
28460;DHT22;32528;45.712;9.192;2023-06-19T05:44:42;22.40;99.90
28460;DHT22;32528;45.712;9.192;2023-06-19T05:46:42;22.40;99.90
28460;DHT22;32528;45.712;9.192;2023-06-19T05:48:43;22.50;99.90
28460;DHT22;32528;45.712;9.192;2023-06-19T05:50:44;22.50;99.90
28460;DHT22;32528;45.712;9.192;2023-06-19T05:52:44;22.60;99.90
28460;DHT22;32528;45.712;9.192;2023-06-19T05:54:46;22.70;99.90
28460;DHT22;32528;45.712;9.192;2023-06-19T05:56:47;22.80;99.90
28460;DHT22;32528;45.712;9.192;2023-06-19T05:58:50;22.90;99.90
28460;DHT22;32528;45.712;9.192;2023-06-19T06:00:51;23.00;99.90
28460;DHT22;32528;45.712;9.192;2023-06-19T06:02:58;23.10;99.90
28460;DHT22;32528;45.712;9.192;2023-06-19T06:05:02;23.20;99.90
28460;DHT22;32528;45.712;9.192;2023-06-19T06:07:03;23.60;99.90
28460;DHT22;32528;45.712;9.192;2023-06-19T06:09:03;24.00;99.90
28460;DHT22;32528;45.712;9.192;2023-06-19T06:11:06;24.10;99.90
28460;DHT22;32528;45.712;9.192;2023-06-19T06:13:07;24.20;99.90
28460;DHT22;32528;45.712;9.192;2023-06-19T06:15:08;24.40;99.90
28460;DHT22;32528;45.712;9.192;2023-06-19T06:17:08;24.60;99.90
28460;DHT22;32528;45.712;9.192;2023-06-19T06:19:10;24.70;99.90
28460;DHT22;32528;45.712;9.192;2023-06-19T06:21:11;24.80;99.90
28460;DHT22;32528;45.712;9.192;2023-06-19T06:23:13;24.90;99.90
28460;DHT22;32528;45.712;9.192;2023-06-19T06:25:13;25.00;99.90
28460;DHT22;32528;45.712;9.192;2023-06-19T06:27:14;25.00;99.90
28460;DHT22;32528;45.712;9.192;2023-06-19T06:29:15;24.90;99.90
28460;DHT22;32528;45.712;9.192;2023-06-19T06:31:15;24.80;99.90
28460;DHT22;32528;45.712;9.192;2023-06-19T06:33:16;24.70;99.90
28460;DHT22;32528;45.712;9.192;2023-06-19T06:35:18;24.60;99.90
28460;DHT22;32528;45.712;9.192;2023-06-19T06:37:18;24.60;99.90
28460;DHT22;32528;45.712;9.192;2023-06-19T06:39:22;24.70;99.90
28460;DHT22;32528;45.712;9.192;2023-06-19T06:41:23;24.70;99.90
28460;DHT22;32528;45.712;9.192;2023-06-19T06:43:26;24.70;99.90
28460;DHT22;32528;45.712;9.192;2023-06-19T06:45:27;24.70;99.90
28460;DHT22;32528;45.712;9.192;2023-06-19T06:47:27;24.60;99.90
28460;DHT22;32528;45.712;9.192;2023-06-19T06:49:28;24.60;99.90
28460;DHT22;32528;45.712;9.192;2023-06-19T06:51:28;24.60;99.90
28460;DHT22;32528;45.712;9.192;2023-06-19T06:53:29;24.70;99.90
28460;DHT22;32528;45.712;9.192;2023-06-19T06:55:32;24.60;99.90
28460;DHT22;32528;45.712;9.192;2023-06-19T06:57:32;24.60;99.90
28460;DHT22;32528;45.712;9.192;2023-06-19T06:59:33;24.70;99.90
28460;DHT22;32528;45.712;9.192;2023-06-19T07:01:34;24.80;99.90
28460;DHT22;32528;45.712;9.192;2023-06-19T07:03:34;24.80;99.90
28460;DHT22;32528;45.712;9.192;2023-06-19T07:05:35;24.90;99.90
28460;DHT22;32528;45.712;9.192;2023-06-19T07:07:36;24.90;99.90
28460;DHT22;32528;45.712;9.192;2023-06-19T07:09:36;24.90;99.90
28460;DHT22;32528;45.712;9.192;2023-06-19T07:11:37;24.90;99.90
28460;DHT22;32528;45.712;9.192;2023-06-19T07:13:38;25.00;99.90
28460;DHT22;32528;45.712;9.192;2023-06-19T07:15:38;25.00;99.90
28460;DHT22;32528;45.712;9.192;2023-06-19T07:17:39;25.10;99.90
28460;DHT22;32528;45.712;9.192;2023-06-19T07:19:40;25.20;99.90
28460;DHT22;32528;45.712;9.192;2023-06-19T07:21:40;25.20;99.90
28460;DHT22;32528;45.712;9.192;2023-06-19T07:23:42;25.10;99.50
28460;DHT22;32528;45.712;9.192;2023-06-19T07:25:45;25.20;99.80
28460;DHT22;32528;45.712;9.192;2023-06-19T07:27:46;25.20;99.90
28460;DHT22;32528;45.712;9.192;2023-06-19T07:29:46;25.30;99.80
28460;DHT22;32528;45.712;9.192;2023-06-19T07:31:47;25.30;99.90
28460;DHT22;32528;45.712;9.192;2023-06-19T07:33:48;25.30;99.20
28460;DHT22;32528;45.712;9.192;2023-06-19T07:35:51;25.20;98.40
28460;DHT22;32528;45.712;9.192;2023-06-19T07:37:51;25.20;98.30
28460;DHT22;32528;45.712;9.192;2023-06-19T07:39:52;25.30;98.80
28460;DHT22;32528;45.712;9.192;2023-06-19T07:41:53;25.40;98.80
28460;DHT22;32528;45.712;9.192;2023-06-19T07:43:54;25.40;98.60
28460;DHT22;32528;45.712;9.192;2023-06-19T07:45:54;25.50;98.10
28460;DHT22;32528;45.712;9.192;2023-06-19T07:47:56;25.60;97.50
28460;DHT22;32528;45.712;9.192;2023-06-19T07:49:57;25.70;97.60
28460;DHT22;32528;45.712;9.192;2023-06-19T07:51:57;25.70;96.90
28460;DHT22;32528;45.712;9.192;2023-06-19T07:53:58;25.70;97.80
28460;DHT22;32528;45.712;9.192;2023-06-19T07:55:59;25.70;96.30
28460;DHT22;32528;45.712;9.192;2023-06-19T07:57:59;25.70;97.10
28460;DHT22;32528;45.712;9.192;2023-06-19T08:00:00;25.80;97.70
28460;DHT22;32528;45.712;9.192;2023-06-19T08:02:00;25.80;97.80
28460;DHT22;32528;45.712;9.192;2023-06-19T08:04:01;25.90;96.50
28460;DHT22;32528;45.712;9.192;2023-06-19T08:06:02;25.90;96.20
28460;DHT22;32528;45.712;9.192;2023-06-19T08:08:03;25.90;96.30
28460;DHT22;32528;45.712;9.192;2023-06-19T08:10:03;26.00;96.10
28460;DHT22;32528;45.712;9.192;2023-06-19T08:12:04;26.00;95.90
28460;DHT22;32528;45.712;9.192;2023-06-19T08:14:05;26.00;95.50
28460;DHT22;32528;45.712;9.192;2023-06-19T08:16:05;26.00;96.00
28460;DHT22;32528;45.712;9.192;2023-06-19T08:18:06;26.10;96.20
28460;DHT22;32528;45.712;9.192;2023-06-19T08:20:07;26.20;96.40
28460;DHT22;32528;45.712;9.192;2023-06-19T08:22:09;26.20;96.60
28460;DHT22;32528;45.712;9.192;2023-06-19T08:24:09;26.10;96.90
28460;DHT22;32528;45.712;9.192;2023-06-19T08:26:10;26.20;95.70
28460;DHT22;32528;45.712;9.192;2023-06-19T08:28:11;26.20;95.50
28460;DHT22;32528;45.712;9.192;2023-06-19T08:30:11;26.30;96.50
28460;DHT22;32528;45.712;9.192;2023-06-19T08:32:13;26.30;96.90
28460;DHT22;32528;45.712;9.192;2023-06-19T08:34:13;26.30;97.20
28460;DHT22;32528;45.712;9.192;2023-06-19T08:36:14;26.30;97.50
28460;DHT22;32528;45.712;9.192;2023-06-19T08:38:15;26.30;98.10
28460;DHT22;32528;45.712;9.192;2023-06-19T08:40:16;26.40;97.80
28460;DHT22;32528;45.712;9.192;2023-06-19T08:42:17;26.20;97.20
28460;DHT22;32528;45.712;9.192;2023-06-19T08:44:17;26.20;97.10
28460;DHT22;32528;45.712;9.192;2023-06-19T08:46:18;26.10;97.20
28460;DHT22;32528;45.712;9.192;2023-06-19T08:48:23;26.10;97.00
28460;DHT22;32528;45.712;9.192;2023-06-19T08:50:24;26.30;98.80
28460;DHT22;32528;45.712;9.192;2023-06-19T08:52:25;26.40;99.00
28460;DHT22;32528;45.712;9.192;2023-06-19T08:54:26;26.40;98.70
28460;DHT22;32528;45.712;9.192;2023-06-19T08:56:26;26.50;99.30
28460;DHT22;32528;45.712;9.192;2023-06-19T08:58:27;26.60;98.80
28460;DHT22;32528;45.712;9.192;2023-06-19T09:00:28;26.80;99.00
28460;DHT22;32528;45.712;9.192;2023-06-19T09:02:46;26.80;98.50
28460;DHT22;32528;45.712;9.192;2023-06-19T09:04:47;26.80;98.80
28460;DHT22;32528;45.712;9.192;2023-06-19T09:06:51;26.90;98.30
28460;DHT22;32528;45.712;9.192;2023-06-19T09:08:59;26.80;97.70
28460;DHT22;32528;45.712;9.192;2023-06-19T09:11:01;26.80;98.50
28460;DHT22;32528;45.712;9.192;2023-06-19T09:13:02;26.90;97.80
28460;DHT22;32528;45.712;9.192;2023-06-19T09:15:10;27.00;97.80
28460;DHT22;32528;45.712;9.192;2023-06-19T09:17:21;27.10;98.70
28460;DHT22;32528;45.712;9.192;2023-06-19T09:19:24;27.20;97.80
28460;DHT22;32528;45.712;9.192;2023-06-19T09:21:26;27.30;98.30
28460;DHT22;32528;45.712;9.192;2023-06-19T09:23:29;27.40;98.10
28460;DHT22;32528;45.712;9.192;2023-06-19T09:25:47;27.40;98.10
28460;DHT22;32528;45.712;9.192;2023-06-19T09:27:48;27.50;98.00
28460;DHT22;32528;45.712;9.192;2023-06-19T09:29:50;27.50;97.30
28460;DHT22;32528;45.712;9.192;2023-06-19T09:31:51;27.60;97.70
28460;DHT22;32528;45.712;9.192;2023-06-19T09:33:51;27.50;97.40
28460;DHT22;32528;45.712;9.192;2023-06-19T09:35:52;27.50;97.00
28460;DHT22;32528;45.712;9.192;2023-06-19T09:37:54;27.60;97.30
28460;DHT22;32528;45.712;9.192;2023-06-19T09:39:55;27.60;97.80
28460;DHT22;32528;45.712;9.192;2023-06-19T09:41:56;27.60;97.80
28460;DHT22;32528;45.712;9.192;2023-06-19T09:43:59;27.70;97.50
28460;DHT22;32528;45.712;9.192;2023-06-19T09:46:02;27.80;97.10
28460;DHT22;32528;45.712;9.192;2023-06-19T09:48:03;28.00;97.10
28460;DHT22;32528;45.712;9.192;2023-06-19T09:50:24;28.10;97.10
28460;DHT22;32528;45.712;9.192;2023-06-19T09:52:27;28.10;97.00
28460;DHT22;32528;45.712;9.192;2023-06-19T09:54:36;28.10;97.30
28460;DHT22;32528;45.712;9.192;2023-06-19T09:56:37;28.10;96.40
28460;DHT22;32528;45.712;9.192;2023-06-19T09:58:38;28.30;96.40
28460;DHT22;32528;45.712;9.192;2023-06-19T10:00:39;28.20;96.50
28460;DHT22;32528;45.712;9.192;2023-06-19T10:02:43;28.00;96.70
28460;DHT22;32528;45.712;9.192;2023-06-19T10:04:45;28.00;96.90
28460;DHT22;32528;45.712;9.192;2023-06-19T10:06:46;28.00;96.60
28460;DHT22;32528;45.712;9.192;2023-06-19T10:08:47;27.90;97.10
28460;DHT22;32528;45.712;9.192;2023-06-19T10:10:48;27.80;97.40
28460;DHT22;32528;45.712;9.192;2023-06-19T10:12:48;28.00;97.60
28460;DHT22;32528;45.712;9.192;2023-06-19T10:14:49;28.20;96.90
28460;DHT22;32528;45.712;9.192;2023-06-19T10:16:50;28.10;95.60
28460;DHT22;32528;45.712;9.192;2023-06-19T10:18:52;28.10;95.80
28460;DHT22;32528;45.712;9.192;2023-06-19T10:20:53;28.20;96.30
28460;DHT22;32528;45.712;9.192;2023-06-19T10:22:58;28.30;96.50
28460;DHT22;32528;45.712;9.192;2023-06-19T10:24:59;28.10;97.30
28460;DHT22;32528;45.712;9.192;2023-06-19T10:27:00;28.00;96.70
28460;DHT22;32528;45.712;9.192;2023-06-19T10:29:01;27.90;96.50
28460;DHT22;32528;45.712;9.192;2023-06-19T10:31:04;27.90;97.00
28460;DHT22;32528;45.712;9.192;2023-06-19T10:33:05;28.00;97.10
28460;DHT22;32528;45.712;9.192;2023-06-19T10:35:10;28.00;96.70
28460;DHT22;32528;45.712;9.192;2023-06-19T10:37:11;28.00;96.10
28460;DHT22;32528;45.712;9.192;2023-06-19T10:39:12;28.20;95.10
28460;DHT22;32528;45.712;9.192;2023-06-19T10:41:23;28.30;95.50
28460;DHT22;32528;45.712;9.192;2023-06-19T10:43:26;28.50;95.30
28460;DHT22;32528;45.712;9.192;2023-06-19T10:45:32;28.60;94.50
28460;DHT22;32528;45.712;9.192;2023-06-19T10:47:32;28.70;95.10
28460;DHT22;32528;45.712;9.192;2023-06-19T10:49:33;28.80;94.90
28460;DHT22;32528;45.712;9.192;2023-06-19T10:51:34;28.90;95.20
28460;DHT22;32528;45.712;9.192;2023-06-19T10:53:36;29.00;94.40
28460;DHT22;32528;45.712;9.192;2023-06-19T10:55:36;29.00;95.00
28460;DHT22;32528;45.712;9.192;2023-06-19T10:57:37;29.20;95.20
28460;DHT22;32528;45.712;9.192;2023-06-19T10:59:39;29.40;94.40
28460;DHT22;32528;45.712;9.192;2023-06-19T11:01:41;29.70;94.30
28460;DHT22;32528;45.712;9.192;2023-06-19T11:03:43;29.90;93.80
28460;DHT22;32528;45.712;9.192;2023-06-19T11:05:44;30.00;93.80
28460;DHT22;32528;45.712;9.192;2023-06-19T11:07:50;30.20;93.30
28460;DHT22;32528;45.712;9.192;2023-06-19T11:09:50;30.10;92.30
28460;DHT22;32528;45.712;9.192;2023-06-19T11:11:51;30.20;93.40
28460;DHT22;32528;45.712;9.192;2023-06-19T11:13:52;30.10;91.70
28460;DHT22;32528;45.712;9.192;2023-06-19T11:15:54;30.10;91.20
28460;DHT22;32528;45.712;9.192;2023-06-19T11:17:55;30.20;92.10
28460;DHT22;32528;45.712;9.192;2023-06-19T11:19:56;30.20;91.90
28460;DHT22;32528;45.712;9.192;2023-06-19T11:21:57;30.00;91.20
28460;DHT22;32528;45.712;9.192;2023-06-19T11:23:58;29.80;91.10
28460;DHT22;32528;45.712;9.192;2023-06-19T11:26:04;30.00;91.10
28460;DHT22;32528;45.712;9.192;2023-06-19T11:28:12;30.20;92.30
28460;DHT22;32528;45.712;9.192;2023-06-19T11:30:29;30.30;92.00
28460;DHT22;32528;45.712;9.192;2023-06-19T11:32:31;30.40;91.40
28460;DHT22;32528;45.712;9.192;2023-06-19T11:34:33;30.60;91.20
28460;DHT22;32528;45.712;9.192;2023-06-19T11:36:37;30.60;90.60
28460;DHT22;32528;45.712;9.192;2023-06-19T11:38:39;30.50;90.90
28460;DHT22;32528;45.712;9.192;2023-06-19T11:40:43;30.60;90.70
28460;DHT22;32528;45.712;9.192;2023-06-19T11:42:44;30.70;90.60
28460;DHT22;32528;45.712;9.192;2023-06-19T11:45:02;30.80;90.10
28460;DHT22;32528;45.712;9.192;2023-06-19T11:47:04;30.90;90.40
28460;DHT22;32528;45.712;9.192;2023-06-19T11:49:09;30.90;90.40
28460;DHT22;32528;45.712;9.192;2023-06-19T11:51:10;31.00;88.60
28460;DHT22;32528;45.712;9.192;2023-06-19T11:53:10;31.00;88.60
28460;DHT22;32528;45.712;9.192;2023-06-19T11:55:13;30.90;87.50
28460;DHT22;32528;45.712;9.192;2023-06-19T11:57:13;31.10;86.50
28460;DHT22;32528;45.712;9.192;2023-06-19T11:59:14;31.20;89.90
28460;DHT22;32528;45.712;9.192;2023-06-19T12:01:15;31.30;88.90
28460;DHT22;32528;45.712;9.192;2023-06-19T12:03:15;31.20;89.50
28460;DHT22;32528;45.712;9.192;2023-06-19T12:05:16;31.30;89.10
28460;DHT22;32528;45.712;9.192;2023-06-19T12:07:17;31.00;86.90
28460;DHT22;32528;45.712;9.192;2023-06-19T12:09:18;30.80;88.10
28460;DHT22;32528;45.712;9.192;2023-06-19T12:11:18;31.10;88.60
28460;DHT22;32528;45.712;9.192;2023-06-19T12:13:19;31.10;86.80
28460;DHT22;32528;45.712;9.192;2023-06-19T12:15:20;30.90;88.50
28460;DHT22;32528;45.712;9.192;2023-06-19T12:17:20;30.70;86.40
28460;DHT22;32528;45.712;9.192;2023-06-19T12:19:21;30.60;85.60
28460;DHT22;32528;45.712;9.192;2023-06-19T12:21:22;30.70;88.20
28460;DHT22;32528;45.712;9.192;2023-06-19T12:23:22;30.70;89.40
28460;DHT22;32528;45.712;9.192;2023-06-19T12:25:24;30.80;88.50
28460;DHT22;32528;45.712;9.192;2023-06-19T12:27:25;30.90;88.70
28460;DHT22;32528;45.712;9.192;2023-06-19T12:29:26;31.00;87.90
28460;DHT22;32528;45.712;9.192;2023-06-19T12:31:27;31.10;87.30
28460;DHT22;32528;45.712;9.192;2023-06-19T12:33:28;31.10;84.70
28460;DHT22;32528;45.712;9.192;2023-06-19T12:35:31;30.90;84.60
28460;DHT22;32528;45.712;9.192;2023-06-19T12:37:32;30.80;83.60
28460;DHT22;32528;45.712;9.192;2023-06-19T12:39:33;30.60;87.60
28460;DHT22;32528;45.712;9.192;2023-06-19T12:41:34;30.60;87.00
28460;DHT22;32528;45.712;9.192;2023-06-19T12:43:35;30.70;86.90
28460;DHT22;32528;45.712;9.192;2023-06-19T12:45:36;30.90;84.80
28460;DHT22;32528;45.712;9.192;2023-06-19T12:47:37;31.20;87.80
28460;DHT22;32528;45.712;9.192;2023-06-19T12:49:38;31.50;85.60
28460;DHT22;32528;45.712;9.192;2023-06-19T12:51:38;31.80;84.00